Time;durP1;ratioP1;P1;durP2;ratioP2;P2;SDS_P1;SDS_P2;PMS_P1;PMS_P2;Temp;Humidity;BMP_temperature;BMP_pressure;BME280_temperature;BME280_humidity;BME280_pressure;Samples;Min_cycle;Max_cycle;Signal;HPM_P1;HPM_P2
2021/03/29 00:01:23;;;;;;;65.63;14.15;;;;;;;5.92;89.63;100413.94;5107409;28;20027;-64
2021/03/29 00:03:49;;;;;;;37.20;7.95;;;;;;;5.94;89.51;100411.38;5107135;28;20030;-64
2021/03/29 00:06:14;;;;;;;34.00;9.82;;;;;;;5.94;89.77;100417.38;5107174;28;20023;-64
2021/03/29 00:08:41;;;;;;;53.47;12.35;;;;;;;5.94;89.83;100413.94;5107407;28;20016;-64
2021/03/29 00:11:08;;;;;;;35.58;9.52;;;;;;;5.98;89.88;100409.66;5106731;28;20024;-64
2021/03/29 00:13:34;;;;;;;32.58;8.40;;;;;;;5.91;89.91;100408.75;5107005;28;20103;-64
2021/03/29 00:16:01;;;;;;;45.17;12.68;;;;;;;5.98;89.94;100423.44;5107278;28;20034;-65
2021/03/29 00:18:28;;;;;;;54.33;13.43;;;;;;;6.01;90.02;100420.00;5106914;28;20027;-65
2021/03/29 00:21:01;;;;;;;55.38;14.07;;;;;;;6.00;90.15;100413.13;5106607;28;20376;-65
2021/03/29 00:23:27;;;;;;;59.15;11.80;;;;;;;5.92;90.39;100408.78;5106679;28;20486;-65
2021/03/29 00:25:53;;;;;;;52.75;13.32;;;;;;;6.01;90.24;100417.44;5106353;28;20165;-65
2021/03/29 00:28:18;;;;;;;80.60;16.85;;;;;;;5.99;90.24;100403.69;5106756;28;20028;-65
2021/03/29 00:30:46;;;;;;;51.83;12.18;;;;;;;6.04;90.23;100405.47;5106751;28;20035;-65
2021/03/29 00:33:12;;;;;;;58.78;11.35;;;;;;;6.03;90.24;100406.31;5088505;28;20016;-65
2021/03/29 00:35:40;;;;;;;76.95;16.55;;;;;;;6.02;90.28;100407.13;5088430;28;20024;-65
2021/03/29 00:38:11;;;;;;;84.95;12.48;;;;;;;6.05;90.34;100411.50;5106683;28;20173;-65
2021/03/29 00:40:39;;;;;;;69.28;11.90;;;;;;;6.06;90.23;100419.25;5106431;28;20020;-65
2021/03/29 00:43:32;;;;;;;103.13;19.38;;;;;;;6.06;90.38;100413.22;5106609;28;20024;-65
2021/03/29 00:46:00;;;;;;;102.85;19.17;;;;;;;6.07;90.37;100412.41;5103244;28;20028;-65
2021/03/29 00:48:28;;;;;;;205.98;27.58;;;;;;;6.05;90.16;100414.09;5106636;28;20055;-65
2021/03/29 00:51:15;;;;;;;143.55;20.75;;;;;;;6.02;90.24;100401.13;5106359;28;20063;-65
2021/03/29 00:53:53;;;;;;;142.88;18.48;;;;;;;6.05;90.25;100385.75;5106302;28;20040;-65
2021/03/29 00:56:20;;;;;;;162.15;22.30;;;;;;;6.03;90.21;100397.72;5106269;28;20020;-65
2021/03/29 00:58:48;;;;;;;152.45;20.15;;;;;;;5.93;90.20;100384.72;5106317;28;20024;-65
2021/03/29 01:01:15;;;;;;;139.57;16.75;;;;;;;5.97;90.35;100393.38;5105638;28;20426;-65
2021/03/29 01:03:46;;;;;;;194.77;21.50;;;;;;;5.96;90.29;100383.88;5088179;28;20324;-65
2021/03/29 01:06:14;;;;;;;159.40;19.98;;;;;;;5.97;90.34;100385.63;5106200;28;20085;-66
2021/03/29 01:08:42;;;;;;;282.60;29.23;;;;;;;5.98;90.44;100394.22;5106446;28;20016;-66
2021/03/29 01:11:11;;;;;;;208.82;25.50;;;;;;;5.93;90.43;100389.88;5105771;28;20040;-66
2021/03/29 01:13:51;;;;;;;300.25;33.30;;;;;;;5.92;90.27;100385.59;5105780;28;20027;-66
2021/03/29 01:16:21;;;;;;;288.17;27.00;;;;;;;5.95;90.25;100377.88;5087633;28;20118;-66
2021/03/29 01:18:52;;;;;;;251.93;26.48;;;;;;;5.92;90.45;100390.75;5106185;28;20016;-66
2021/03/29 01:21:45;;;;;;;367.30;35.95;;;;;;;5.91;90.50;100383.84;5105744;28;20119;-67
2021/03/29 01:24:20;;;;;;;305.33;34.72;;;;;;;5.87;90.61;100374.34;5087398;28;20044;-66
2021/03/29 01:26:47;;;;;;;359.48;38.70;;;;;;;5.88;90.73;100377.81;5105397;28;20101;-66
2021/03/29 01:29:16;;;;;;;225.25;26.25;;;;;;;5.96;90.71;100386.47;5105418;28;20085;-66
2021/03/29 01:31:42;;;;;;;214.95;25.15;;;;;;;5.99;90.77;100386.50;5105516;28;20035;-67
2021/03/29 01:34:10;;;;;;;180.05;19.48;;;;;;;6.03;90.77;100382.25;5105529;28;20095;-67
2021/03/29 01:36:36;;;;;;;177.10;22.35;;;;;;;6.06;90.64;100382.31;5105789;28;20024;-67
2021/03/29 01:39:03;;;;;;;83.82;15.27;;;;;;;6.07;90.73;100391.78;5105168;28;20500;-67
2021/03/29 01:41:29;;;;;;;57.05;12.88;;;;;;;6.04;90.73;100391.69;5104842;28;20024;-64
2021/03/29 01:43:56;;;;;;;40.13;8.30;;;;;;;6.03;90.89;100384.81;5105535;28;20079;-64
2021/03/29 01:46:22;;;;;;;44.88;13.02;;;;;;;5.98;90.74;100369.31;5105433;28;20049;-63
2021/03/29 01:48:48;;;;;;;49.08;10.93;;;;;;;6.01;90.85;100377.06;5105299;28;20095;-64
2021/03/29 01:51:16;;;;;;;40.95;10.32;;;;;;;6.01;90.88;100366.75;5105135;28;20106;-65
2021/03/29 01:53:42;;;;;;;59.72;10.27;;;;;;;5.99;90.71;100357.31;5104986;28;20035;-63
2021/03/29 01:56:08;;;;;;;74.95;13.77;;;;;;;5.97;90.89;100359.88;5105036;28;20057;-65
2021/03/29 01:58:33;;;;;;;78.38;12.18;;;;;;;5.97;90.98;100353.84;5105035;28;20032;-63
2021/03/29 02:01:03;;;;;;;100.63;10.27;;;;;;;5.94;90.93;100352.94;5104819;28;20050;-64
2021/03/29 02:03:29;;;;;;;164.15;21.88;;;;;;;5.92;91.08;100351.22;5104740;28;20035;-64
2021/03/29 02:05:55;;;;;;;123.35;14.82;;;;;;;5.91;91.05;100355.50;5105079;28;20016;-64
2021/03/29 02:08:22;;;;;;;137.10;16.98;;;;;;;5.91;91.05;100352.91;5105016;28;20094;-64
2021/03/29 02:10:48;;;;;;;94.03;14.68;;;;;;;5.95;90.95;100354.69;5103974;28;20028;-64
2021/03/29 02:13:15;;;;;;;92.57;17.70;;;;;;;5.95;91.29;100358.97;5104331;28;20024;-64
2021/03/29 02:15:43;;;;;;;85.25;12.88;;;;;;;5.99;91.25;100344.41;5104778;28;20079;-64
2021/03/29 02:18:24;;;;;;;58.05;8.18;;;;;;;6.03;91.37;100347.03;5104751;28;20028;-63
2021/03/29 02:20:50;;;;;;;115.07;16.17;;;;;;;6.00;91.50;100330.66;5104750;28;20377;-63
2021/03/29 02:23:18;;;;;;;197.93;25.33;;;;;;;6.03;91.44;100328.13;5105058;28;20028;-63
2021/03/29 02:25:46;;;;;;;174.30;24.52;;;;;;;6.08;91.38;100336.81;5104151;28;20583;-63
2021/03/29 02:28:12;;;;;;;129.40;15.50;;;;;;;6.08;91.28;100323.91;5104411;28;20054;-63
2021/03/29 02:30:40;;;;;;;170.15;21.27;;;;;;;6.08;91.42;100323.91;5104328;28;20030;-63
2021/03/29 02:33:08;;;;;;;122.38;20.50;;;;;;;6.12;91.22;100328.22;5104519;28;20035;-63
2021/03/29 02:35:35;;;;;;;82.45;10.95;;;;;;;6.11;91.22;100320.47;5104203;28;20024;-62
2021/03/29 02:38:03;;;;;;;122.75;16.52;;;;;;;6.06;91.28;100320.44;5104054;28;20027;-63
2021/03/29 02:40:28;;;;;;;45.70;8.10;;;;;;;6.02;91.38;100310.94;5085903;28;20122;-62
2021/03/29 02:42:56;;;;;;;35.33;8.23;;;;;;;6.01;91.38;100304.91;5104022;28;20047;-62
2021/03/29 02:45:29;;;;;;;50.15;8.93;;;;;;;6.05;91.38;100311.00;5104251;28;20077;-62
2021/03/29 02:47:58;;;;;;;33.97;6.55;;;;;;;6.06;91.34;100321.31;5104161;28;20024;-63
2021/03/29 02:50:25;;;;;;;50.80;10.90;;;;;;;6.04;91.44;100306.63;5103860;28;20024;-63
2021/03/29 02:52:55;;;;;;;95.82;13.77;;;;;;;6.07;91.34;100317.88;5103825;28;20082;-63
2021/03/29 02:55:22;;;;;;;83.15;10.60;;;;;;;6.05;91.38;100304.09;5104185;28;20042;-63
2021/03/29 02:57:51;;;;;;;86.03;13.20;;;;;;;6.12;91.37;100294.72;5103535;28;20032;-64
2021/03/29 03:00:20;;;;;;;103.35;12.15;;;;;;;6.09;91.43;100307.59;5103752;28;20028;-64
2021/03/29 03:02:46;;;;;;;117.05;15.52;;;;;;;6.09;91.63;100309.31;5104211;28;20026;-63
2021/03/29 03:05:12;;;;;;;73.93;13.68;;;;;;;6.10;91.56;100290.41;5103869;28;20020;-63
2021/03/29 03:07:39;;;;;;;22.52;5.90;;;;;;;6.08;91.62;100300.72;5103902;28;20020;-64
2021/03/29 03:10:13;;;;;;;26.15;6.95;;;;;;;6.10;91.70;100296.44;5103842;28;20027;-65
2021/03/29 03:12:43;;;;;;;31.15;9.20;;;;;;;6.10;91.72;100295.56;5103697;28;20095;-65
2021/03/29 03:15:11;;;;;;;33.28;9.75;;;;;;;6.12;91.91;100297.28;5103764;28;20520;-64
2021/03/29 03:17:37;;;;;;;43.53;11.90;;;;;;;6.18;91.57;100294.75;5103718;28;20032;-64
2021/03/29 03:20:10;;;;;;;43.42;12.63;;;;;;;6.18;91.74;100288.78;5103742;28;20028;-64
2021/03/29 03:22:36;;;;;;;36.97;8.50;;;;;;;6.20;91.76;100287.91;5103357;28;20024;-63
2021/03/29 03:25:21;;;;;;;37.80;9.60;;;;;;;6.24;91.82;100285.38;5103383;28;20047;-63
2021/03/29 03:27:46;;;;;;;42.05;10.25;;;;;;;6.24;91.72;100290.53;5103347;28;20083;-63
2021/03/29 03:30:27;;;;;;;40.33;11.63;;;;;;;6.23;91.83;100287.06;5103642;28;20062;-63
2021/03/29 03:32:53;;;;;;;99.65;20.45;;;;;;;6.26;91.94;100297.41;5103682;28;20056;-63
2021/03/29 03:35:20;;;;;;;48.10;10.95;;;;;;;6.28;91.99;100285.41;5085072;28;20487;-64
2021/03/29 03:37:53;;;;;;;67.43;16.17;;;;;;;6.31;91.90;100297.47;5085601;28;20043;-63
2021/03/29 03:40:21;;;;;;;80.88;16.55;;;;;;;6.32;91.88;100283.72;5103380;28;20065;-64
2021/03/29 03:42:51;;;;;;;93.32;17.23;;;;;;;6.36;91.87;100290.59;5103229;28;20031;-64
2021/03/29 03:45:24;;;;;;;54.33;12.88;;;;;;;6.34;91.84;100283.72;5103275;28;20033;-64
2021/03/29 03:47:51;;;;;;;76.78;16.08;;;;;;;6.40;91.97;100268.28;5103498;28;20079;-65
2021/03/29 03:50:18;;;;;;;60.25;15.18;;;;;;;6.39;92.00;100280.31;5103207;28;20048;-64
2021/03/29 03:52:44;;;;;;;55.33;12.70;;;;;;;6.34;92.09;100270.81;5103385;28;20107;-64
2021/03/29 03:55:10;;;;;;;46.05;12.02;;;;;;;6.44;92.00;100265.75;5103081;28;20016;-63
2021/03/29 03:57:37;;;;;;;37.33;10.18;;;;;;;6.45;91.99;100266.59;5102939;28;20028;-63
2021/03/29 04:00:12;;;;;;;34.60;9.63;;;;;;;6.49;92.14;100262.31;5103033;28;20024;-64
2021/03/29 04:02:39;;;;;;;40.88;12.13;;;;;;;6.47;91.79;100258.88;5103044;28;20035;-65
2021/03/29 04:05:06;;;;;;;57.50;14.23;;;;;;;6.52;91.79;100272.66;5103075;28;20033;-64
2021/03/29 04:07:31;;;;;;;44.78;10.48;;;;;;;6.55;91.66;100267.53;5084915;28;20070;-63
2021/03/29 04:10:10;;;;;;;36.78;9.10;;;;;;;6.56;91.74;100262.38;5103036;28;20020;-64
2021/03/29 04:12:35;;;;;;;52.78;13.90;;;;;;;6.51;91.72;100261.50;5102714;28;20138;-62
2021/03/29 04:15:01;;;;;;;27.02;7.88;;;;;;;6.54;91.76;100258.06;5102947;28;20050;-62
2021/03/29 04:17:26;;;;;;;50.85;13.70;;;;;;;6.52;91.62;100254.59;5103123;28;20020;-63
2021/03/29 04:19:52;;;;;;;31.88;10.10;;;;;;;6.51;91.76;100250.28;5084744;28;20285;-64
2021/03/29 04:22:17;;;;;;;26.10;7.00;;;;;;;6.51;92.01;100258.91;5103049;28;20020;-62
2021/03/29 04:24:42;;;;;;;49.97;13.20;;;;;;;6.55;91.65;100255.47;5102843;28;20040;-62
2021/03/29 04:27:08;;;;;;;35.88;8.13;;;;;;;6.53;91.64;100258.91;5102887;28;20020;-63
2021/03/29 04:29:33;;;;;;;43.45;11.85;;;;;;;6.48;91.85;100232.22;5102867;28;20353;-62
2021/03/29 04:31:59;;;;;;;44.53;11.15;;;;;;;6.50;91.63;100248.59;5084636;28;20023;-63
2021/03/29 04:34:24;;;;;;;20.58;5.60;;;;;;;6.54;91.53;100240.88;5103290;28;20028;-66
2021/03/29 04:36:50;;;;;;;24.25;6.57;;;;;;;6.49;91.74;100237.41;5107266;28;20023;-64
2021/03/29 04:39:15;;;;;;;28.10;8.40;;;;;;;6.47;91.80;100246.00;5106511;28;20024;-64
2021/03/29 04:41:40;;;;;;;24.55;6.75;;;;;;;6.48;91.91;100245.13;5087613;28;20110;-64
2021/03/29 04:44:06;;;;;;;32.53;10.20;;;;;;;6.41;92.02;100250.25;5106610;28;20042;-64
2021/03/29 04:46:31;;;;;;;38.47;9.32;;;;;;;6.45;92.07;100244.25;5106942;28;20024;-64
2021/03/29 04:48:57;;;;;;;39.75;12.63;;;;;;;6.49;92.02;100244.25;5106553;28;20084;-64
2021/03/29 04:51:22;;;;;;;39.75;11.15;;;;;;;6.50;92.09;100243.44;5106201;28;20051;-64
2021/03/29 04:53:48;;;;;;;47.60;14.07;;;;;;;6.54;92.00;100237.41;5108526;28;20031;-64
2021/03/29 04:56:13;;;;;;;38.08;8.65;;;;;;;6.53;92.06;100240.88;5106388;28;20157;-64
2021/03/29 04:58:38;;;;;;;31.70;7.95;;;;;;;6.54;92.11;100225.41;5106690;28;20386;-64
2021/03/29 05:01:04;;;;;;;41.97;10.05;;;;;;;6.56;92.14;100239.16;5106529;28;20020;-63
2021/03/29 05:03:29;;;;;;;50.78;13.90;;;;;;;6.55;92.24;100244.31;5106665;28;20024;-63
2021/03/29 05:05:55;;;;;;;40.97;11.15;;;;;;;6.58;91.92;100236.59;5088149;28;20024;-63
2021/03/29 05:08:20;;;;;;;28.10;7.32;;;;;;;6.59;91.97;100242.59;5106524;28;20048;-63
2021/03/29 05:10:45;;;;;;;44.00;8.63;;;;;;;6.55;92.15;100240.00;5106627;28;20050;-64
2021/03/29 05:13:11;;;;;;;40.33;9.88;;;;;;;6.56;91.74;100243.47;5106987;28;20020;-62
2021/03/29 05:15:36;;;;;;;41.58;11.23;;;;;;;6.58;91.92;100252.06;5098133;28;20024;-64
2021/03/29 05:18:02;;;;;;;62.58;11.90;;;;;;;6.52;91.86;100240.00;5107786;28;20110;-65
2021/03/29 05:20:27;;;;;;;43.38;10.65;;;;;;;6.59;91.82;100234.88;5106160;28;20435;-63
2021/03/29 05:22:52;;;;;;;44.03;11.80;;;;;;;6.60;91.97;100252.09;5106069;28;20035;-63
2021/03/29 05:25:18;;;;;;;54.13;13.98;;;;;;;6.62;91.77;100258.09;5106254;28;20036;-63
2021/03/29 05:27:43;;;;;;;48.58;11.27;;;;;;;6.53;91.70;100241.69;5105687;28;20034;-64
2021/03/29 05:30:09;;;;;;;46.50;12.18;;;;;;;6.60;91.87;100252.94;5105817;28;20035;-64
2021/03/29 05:32:35;;;;;;;31.23;9.35;;;;;;;6.59;91.95;100248.63;5105759;28;20617;-63
2021/03/29 05:35:01;;;;;;;16.55;5.22;;;;;;;6.62;91.95;100246.06;5105962;28;20029;-64
2021/03/29 05:37:27;;;;;;;28.23;9.75;;;;;;;6.63;91.80;100260.69;5088088;28;20444;-63
2021/03/29 05:39:55;;;;;;;31.00;9.15;;;;;;;6.61;91.76;100249.50;5105598;28;20028;-64
2021/03/29 05:42:22;;;;;;;33.70;7.40;;;;;;;6.61;91.72;100249.50;5105541;28;20049;-64
2021/03/29 05:44:51;;;;;;;80.15;12.60;;;;;;;6.57;91.61;100255.50;5105785;28;20032;-64
2021/03/29 05:47:17;;;;;;;67.28;16.48;;;;;;;6.55;91.61;100263.22;5105608;28;20027;-63
2021/03/29 05:49:43;;;;;;;38.45;9.45;;;;;;;6.51;91.85;100253.75;5105467;28;20020;-64
2021/03/29 05:52:08;;;;;;;69.78;14.88;;;;;;;6.45;91.62;100258.88;5105597;28;20069;-64
2021/03/29 05:54:34;;;;;;;51.55;12.35;;;;;;;6.49;91.58;100252.00;5105576;28;20032;-63
2021/03/29 05:56:59;;;;;;;31.10;7.43;;;;;;;6.48;91.52;100258.91;5105524;28;20123;-64
2021/03/29 05:59:40;;;;;;;47.10;10.68;;;;;;;6.39;91.77;100259.69;5105469;28;20545;-63
2021/03/29 06:02:07;;;;;;;40.42;9.15;;;;;;;6.37;91.77;100265.69;5105465;28;20020;-64
2021/03/29 06:04:45;;;;;;;46.85;12.50;;;;;;;6.34;92.00;100257.94;5105591;28;20016;-64
2021/03/29 06:07:12;;;;;;;47.00;12.43;;;;;;;6.32;92.08;100268.25;5105519;28;20024;-64
2021/03/29 06:09:38;;;;;;;52.20;14.23;;;;;;;6.32;91.71;100269.13;5105142;28;20047;-64
2021/03/29 06:12:03;;;;;;;66.00;17.85;;;;;;;6.35;92.00;100268.25;5104921;28;20020;-64
2021/03/29 06:14:30;;;;;;;48.95;12.93;;;;;;;6.34;91.99;100276.00;5105241;28;20020;-64
2021/03/29 06:16:58;;;;;;;32.85;10.55;;;;;;;6.35;92.01;100278.56;5105263;28;20043;-64
2021/03/29 06:19:45;;;;;;;34.50;9.25;;;;;;;6.34;91.98;100276.84;5105087;28;20028;-63
2021/03/29 06:22:19;;;;;;;24.60;7.85;;;;;;;6.38;91.96;100267.41;5105269;28;20129;-63
2021/03/29 06:25:10;;;;;;;26.00;7.57;;;;;;;6.36;91.92;100262.25;5105112;28;20073;-63
2021/03/29 06:27:55;;;;;;;42.47;12.57;;;;;;;6.25;92.03;100267.31;5104393;28;20104;-63
2021/03/29 06:30:27;;;;;;;25.65;9.18;;;;;;;6.26;92.04;100269.03;5104782;28;20028;-67
2021/03/29 06:32:57;;;;;;;50.90;12.23;;;;;;;6.27;92.12;100272.50;5105087;28;20392;-63
2021/03/29 06:35:29;;;;;;;18.25;7.07;;;;;;;6.31;91.89;100282.84;5104988;28;20389;-63
2021/03/29 06:38:07;;;;;;;47.13;8.70;;;;;;;6.27;92.03;100272.50;5105011;28;20035;-63
2021/03/29 06:40:32;;;;;;;51.63;11.98;;;;;;;6.23;91.96;100284.50;5104754;28;20050;-63
2021/03/29 06:42:58;;;;;;;105.95;14.85;;;;;;;6.28;92.18;100282.81;5104476;28;20020;-63
2021/03/29 06:45:23;;;;;;;40.85;10.20;;;;;;;6.28;92.04;100279.38;5104646;28;20480;-63
2021/03/29 06:47:49;;;;;;;44.13;8.43;;;;;;;6.29;92.02;100275.94;5104716;28;20028;-63
2021/03/29 06:50:25;;;;;;;86.35;16.33;;;;;;;6.27;92.10;100277.66;5104466;28;20097;-63
2021/03/29 06:52:51;;;;;;;54.58;11.30;;;;;;;6.26;92.20;100275.94;5104768;28;20031;-63
2021/03/29 06:55:19;;;;;;;50.20;11.95;;;;;;;6.27;92.23;100277.66;5086212;28;20051;-63
2021/03/29 06:57:46;;;;;;;32.38;9.27;;;;;;;6.28;92.34;100271.63;5103579;28;20092;-63
2021/03/29 07:00:26;;;;;;;34.40;8.10;;;;;;;6.28;92.24;100289.69;5104284;28;20024;-63
2021/03/29 07:02:52;;;;;;;26.70;8.35;;;;;;;6.24;92.37;100272.47;5104541;28;20349;-63
2021/03/29 07:05:17;;;;;;;25.25;6.00;;;;;;;6.38;92.44;100286.31;5086254;28;20024;-63
2021/03/29 07:07:44;;;;;;;49.20;9.38;;;;;;;6.35;92.41;100286.31;5104240;28;20035;-63
2021/03/29 07:10:11;;;;;;;74.07;13.40;;;;;;;6.39;92.26;100285.47;5104412;28;20020;-63
2021/03/29 07:12:39;;;;;;;78.75;15.65;;;;;;;6.43;92.38;100279.50;5095618;28;20111;-63
2021/03/29 07:15:09;;;;;;;59.22;12.48;;;;;;;6.40;92.44;100278.59;5104179;28;20031;-63
2021/03/29 07:17:39;;;;;;;68.65;14.60;;;;;;;6.44;92.46;100290.66;5104281;28;20026;-63
2021/03/29 07:20:21;;;;;;;83.75;13.68;;;;;;;6.40;92.40;100288.91;5103968;28;20024;-63
2021/03/29 07:22:48;;;;;;;96.63;15.90;;;;;;;6.45;92.36;100275.19;5104133;28;20162;-63
2021/03/29 07:25:15;;;;;;;112.38;18.08;;;;;;;6.39;92.42;100288.03;5103807;28;20047;-63
2021/03/29 07:27:44;;;;;;;88.88;15.20;;;;;;;6.44;92.33;100276.06;5103794;28;20036;-63
2021/03/29 07:30:12;;;;;;;63.53;16.05;;;;;;;6.47;92.47;100295.00;5103742;28;20048;-63
2021/03/29 07:32:38;;;;;;;53.28;8.65;;;;;;;6.44;92.37;100283.78;5103847;28;20031;-63
2021/03/29 07:35:05;;;;;;;112.47;18.33;;;;;;;6.43;92.31;100291.50;5103692;28;20448;-63
2021/03/29 07:37:40;;;;;;;52.00;8.80;;;;;;;6.42;92.38;100300.13;5103664;28;20028;-63
2021/03/29 07:40:35;;;;;;;35.15;10.07;;;;;;;6.44;92.43;100298.38;5103692;28;20020;-63
2021/03/29 07:43:13;;;;;;;26.58;6.85;;;;;;;6.45;92.39;100303.56;5103313;28;20040;-63
2021/03/29 07:45:45;;;;;;;98.88;15.52;;;;;;;6.44;92.30;100313.88;5103509;28;20024;-63
2021/03/29 07:48:14;;;;;;;35.70;7.85;;;;;;;6.40;92.36;100314.72;5103519;28;20533;-63
2021/03/29 07:50:40;;;;;;;44.88;9.63;;;;;;;6.42;92.26;100303.53;5103475;28;20032;-63
2021/03/29 07:53:07;;;;;;;115.88;17.92;;;;;;;6.42;92.26;100313.00;5103629;28;20020;-64
2021/03/29 07:55:50;;;;;;;115.20;13.23;;;;;;;6.40;92.50;100307.84;5103333;28;20026;-63
2021/03/29 07:58:22;;;;;;;196.85;23.50;;;;;;;6.42;92.30;100316.44;5103282;28;20028;-62
2021/03/29 08:01:05;;;;;;;159.27;17.17;;;;;;;6.40;92.34;100310.41;5103279;28;20099;-63
2021/03/29 08:03:31;;;;;;;183.30;22.05;;;;;;;6.41;92.28;100319.00;5103598;28;20031;-63
2021/03/29 08:05:56;;;;;;;139.43;18.35;;;;;;;6.39;92.28;100316.41;5103513;28;20032;-63
2021/03/29 08:08:27;;;;;;;68.70;13.15;;;;;;;6.39;92.26;100313.00;5103442;28;20054;-63
2021/03/29 08:11:11;;;;;;;157.32;17.27;;;;;;;6.41;92.24;100319.00;5106239;28;20036;-63
2021/03/29 08:13:56;;;;;;;188.77;19.67;;;;;;;6.40;92.28;100325.03;5107379;28;20032;-63
2021/03/29 08:16:21;;;;;;;198.05;24.80;;;;;;;6.36;92.25;100331.03;5107437;28;20083;-63
2021/03/29 08:19:10;;;;;;;341.70;32.70;;;;;;;6.36;92.34;100331.03;5107162;28;20028;-63
2021/03/29 08:21:41;;;;;;;218.65;22.10;;;;;;;6.32;92.35;100336.16;5107162;28;20099;-63
2021/03/29 08:24:14;;;;;;;193.50;21.95;;;;;;;6.31;92.35;100342.13;5089041;28;20109;-63
2021/03/29 08:26:40;;;;;;;164.55;21.83;;;;;;;6.28;92.47;100333.50;5107068;28;20032;-63
2021/03/29 08:29:13;;;;;;;228.45;23.67;;;;;;;6.27;92.39;100344.69;5107200;28;20035;-63
2021/03/29 08:32:17;;;;;;;144.77;14.07;;;;;;;6.30;92.44;100355.03;5107050;28;20020;-63
2021/03/29 08:34:42;;;;;;;196.85;18.60;;;;;;;6.27;92.34;100350.72;5106299;28;20040;-63
2021/03/29 08:37:10;;;;;;;251.88;24.48;;;;;;;6.25;92.41;100352.41;5107192;28;20158;-64
2021/03/29 08:39:57;;;;;;;182.30;22.05;;;;;;;6.26;92.54;100355.84;5106934;28;20081;-63
2021/03/29 08:42:30;;;;;;;327.45;38.50;;;;;;;6.27;92.48;100352.41;5106567;28;20050;-63
2021/03/29 08:44:56;;;;;;;193.70;21.60;;;;;;;6.31;92.56;100357.59;5107094;28;20407;-63
2021/03/29 08:47:23;;;;;;;296.15;29.98;;;;;;;6.32;92.38;100358.47;5106864;28;20033;-64
2021/03/29 08:49:52;;;;;;;151.13;19.38;;;;;;;6.29;92.35;100361.88;5106789;28;20031;-63
2021/03/29 08:52:18;;;;;;;225.63;27.67;;;;;;;6.31;92.45;100367.09;5106887;28;20020;-64
2021/03/29 08:54:58;;;;;;;153.85;17.77;;;;;;;6.36;92.40;100370.53;5106782;28;20410;-64
2021/03/29 08:57:26;;;;;;;87.85;12.30;;;;;;;6.33;92.47;100365.34;5106517;28;20024;-64
2021/03/29 08:59:54;;;;;;;196.75;22.20;;;;;;;6.36;92.45;100362.81;5106540;28;20028;-63
2021/03/29 09:02:19;;;;;;;160.48;18.63;;;;;;;6.33;92.51;100357.63;5106636;28;20023;-64
2021/03/29 09:04:48;;;;;;;202.23;21.45;;;;;;;6.35;92.42;100373.97;5106705;28;20376;-63
2021/03/29 09:07:13;;;;;;;78.70;11.88;;;;;;;6.42;92.48;100370.59;5106814;28;20020;-63
2021/03/29 09:09:39;;;;;;;80.55;13.43;;;;;;;6.42;92.55;100362.00;5106447;28;20047;-64
2021/03/29 09:12:04;;;;;;;79.75;13.23;;;;;;;6.44;92.58;100373.19;5106289;28;20024;-63
2021/03/29 09:14:30;;;;;;;95.28;17.17;;;;;;;6.47;92.67;100377.53;5106392;28;20020;-63
2021/03/29 09:16:58;;;;;;;89.55;17.75;;;;;;;6.50;92.61;100382.69;5106384;28;20024;-63
2021/03/29 09:19:24;;;;;;;28.33;9.50;;;;;;;6.53;92.44;100378.41;5106217;28;20020;-63
2021/03/29 09:21:59;;;;;;;21.70;5.90;;;;;;;6.57;92.40;100380.19;5105528;28;20053;-64
2021/03/29 09:24:29;;;;;;;57.53;13.18;;;;;;;6.56;92.36;100382.75;5105797;28;20040;-63
2021/03/29 09:26:58;;;;;;;50.05;13.68;;;;;;;6.53;92.30;100393.03;5106025;28;20115;-63
2021/03/29 09:29:42;;;;;;;62.63;17.60;;;;;;;6.55;92.66;100391.34;5106271;28;20020;-63
2021/03/29 09:32:17;;;;;;;57.97;16.40;;;;;;;6.59;92.28;100371.56;5106180;28;20023;-63
2021/03/29 09:34:47;;;;;;;46.95;11.77;;;;;;;6.56;92.29;100380.16;5105954;28;20024;-63
2021/03/29 09:37:24;;;;;;;49.08;12.18;;;;;;;6.57;92.22;100374.16;5106343;28;20024;-63
2021/03/29 09:40:08;;;;;;;44.72;12.65;;;;;;;6.59;92.07;100390.50;5106089;28;20085;-63
2021/03/29 09:42:42;;;;;;;22.80;4.53;;;;;;;6.59;92.02;100372.44;5105697;28;20571;-64
2021/03/29 09:45:14;;;;;;;42.30;10.05;;;;;;;6.57;92.19;100394.78;5087692;28;20024;-63
2021/03/29 09:47:39;;;;;;;59.88;10.25;;;;;;;6.59;92.08;100387.94;5105983;28;20099;-63
2021/03/29 09:50:09;;;;;;;71.65;12.40;;;;;;;6.57;92.15;100394.78;5105827;28;20047;-63
2021/03/29 09:52:41;;;;;;;26.25;6.55;;;;;;;6.57;92.06;100403.38;5106023;28;20024;-63
2021/03/29 09:55:08;;;;;;;50.42;10.18;;;;;;;6.54;92.08;100405.06;5105712;28;20032;-63
2021/03/29 09:57:39;;;;;;;26.75;4.45;;;;;;;6.57;92.24;100410.25;5105441;28;20365;-63
2021/03/29 10:00:14;;;;;;;36.85;9.38;;;;;;;6.57;92.32;100415.41;5105593;28;20023;-63
2021/03/29 10:02:39;;;;;;;15.45;5.30;;;;;;;6.62;92.30;100415.44;5105764;28;20027;-63
2021/03/29 10:05:06;;;;;;;24.83;8.27;;;;;;;6.61;92.22;100431.78;5105554;28;20028;-63
2021/03/29 10:07:31;;;;;;;22.23;6.82;;;;;;;6.65;92.51;100430.97;5105699;28;20054;-63
2021/03/29 10:09:59;;;;;;;32.97;10.27;;;;;;;6.69;92.47;100431.00;5105301;28;20052;-64
2021/03/29 10:12:29;;;;;;;34.60;10.00;;;;;;;6.76;92.52;100420.72;5105145;28;20054;-62
2021/03/29 10:15:14;;;;;;;41.67;9.50;;;;;;;6.83;92.26;100427.66;5105391;28;20048;-62
2021/03/29 10:17:40;;;;;;;31.30;9.45;;;;;;;6.88;92.14;100420.84;5105402;28;20055;-62
2021/03/29 10:20:11;;;;;;;31.58;9.43;;;;;;;6.94;92.17;100418.28;5105034;28;20020;-62
2021/03/29 10:22:37;;;;;;;34.85;10.20;;;;;;;6.97;92.01;100404.53;5105429;28;20067;-62
2021/03/29 10:25:22;;;;;;;38.17;11.52;;;;;;;7.00;92.00;100424.31;5105077;28;20074;-61
2021/03/29 10:27:56;;;;;;;48.45;11.73;;;;;;;7.02;92.08;100417.47;5104699;28;20032;-62
2021/03/29 10:30:27;;;;;;;71.50;14.98;;;;;;;7.06;92.14;100402.00;5105167;28;20024;-62
2021/03/29 10:32:59;;;;;;;95.18;19.02;;;;;;;6.98;91.82;100390.75;5104212;28;20020;-62
2021/03/29 10:35:27;;;;;;;38.78;11.68;;;;;;;7.05;92.05;100426.09;5105260;28;20024;-62
2021/03/29 10:37:53;;;;;;;44.33;11.48;;;;;;;7.08;91.94;100412.34;5105036;28;20468;-63
2021/03/29 10:40:19;;;;;;;36.42;9.15;;;;;;;7.11;91.81;100409.78;5104874;28;20035;-63
2021/03/29 10:42:45;;;;;;;51.33;12.98;;;;;;;7.07;91.75;100423.53;5104519;28;20040;-62
2021/03/29 10:45:13;;;;;;;54.88;13.80;;;;;;;7.08;91.84;100427.81;5105004;28;20056;-63
2021/03/29 10:47:40;;;;;;;54.25;12.80;;;;;;;7.07;91.74;100432.16;5104817;28;20020;-63
2021/03/29 10:50:08;;;;;;;56.35;12.55;;;;;;;7.08;91.82;100438.16;5104818;28;20117;-63
2021/03/29 10:52:33;;;;;;;54.42;11.85;;;;;;;7.11;91.85;100425.25;5104972;28;20028;-63
2021/03/29 10:54:59;;;;;;;58.08;12.75;;;;;;;7.15;91.95;100439.94;5104584;28;20024;-63
2021/03/29 10:57:24;;;;;;;35.30;11.50;;;;;;;7.17;91.69;100438.19;5086140;28;20023;-63
2021/03/29 10:59:50;;;;;;;33.28;9.70;;;;;;;7.19;91.70;100426.19;5104267;28;20023;-63
2021/03/29 11:02:15;;;;;;;31.98;10.80;;;;;;;7.20;91.71;100427.06;5104652;28;20023;-63
2021/03/29 11:04:41;;;;;;;34.10;10.45;;;;;;;7.21;91.76;100413.28;5104550;28;20027;-63
2021/03/29 11:07:06;;;;;;;78.45;13.23;;;;;;;7.21;91.67;100433.06;5104787;28;20032;-62
2021/03/29 11:09:32;;;;;;;67.50;12.75;;;;;;;7.22;91.80;100429.63;5104378;28;20089;-62
2021/03/29 11:11:57;;;;;;;66.78;12.82;;;;;;;7.22;91.81;100432.22;5104040;28;20047;-62
2021/03/29 11:14:23;;;;;;;64.07;13.13;;;;;;;7.27;92.04;100433.97;5104285;28;20084;-63
2021/03/29 11:16:55;;;;;;;49.88;12.27;;;;;;;7.30;91.77;100440.88;5104369;28;20024;-62
2021/03/29 11:19:21;;;;;;;65.22;10.95;;;;;;;7.32;91.85;100415.91;5104433;28;20030;-62
2021/03/29 11:21:47;;;;;;;83.95;14.38;;;;;;;7.29;91.73;100442.59;5104090;28;20122;-62
2021/03/29 11:24:13;;;;;;;98.20;15.73;;;;;;;7.26;91.58;100444.28;5103996;28;20080;-63
2021/03/29 11:26:39;;;;;;;131.52;20.30;;;;;;;7.27;91.84;100446.00;5103747;28;20387;-63